Terminal Aerodrome Forecast
Issued by NWS Shreveport, LA

Home | Current Version | Previous Version | Text Only | Print | Product List | Glossary On
Versions: 1 2 3 4 5 6 7 8 9 10 11 12 13 14 15
025
FTUS44 KSHV 271506 AAA
TAFLFK
TAF AMD
KLFK 271506Z 2715/2812 15007KT P6SM OVC006
     FM272100 16010KT P6SM VCTS BKN025 OVC035CB
     FM280000 16009KT P6SM BKN030 OVC050
     FM280500 18007KT P6SM OVC015
     FM280800 18007KT 2SM BR OVC010=

USA.gov is the U.S. government's official web portal to all federal, state and local government web resources and services.